createdAt,value
2022-08-17T00:00:01.319Z,56.60
2022-08-17T00:02:28.280Z,56.60
2022-08-17T00:04:56.063Z,56.40
2022-08-17T00:07:23.103Z,56.70
2022-08-17T00:09:50.288Z,56.50
2022-08-17T00:12:43.534Z,56.70
2022-08-17T00:15:05.951Z,56.80
2022-08-17T00:17:37.373Z,57.00
2022-08-17T00:20:04.853Z,56.80
2022-08-17T00:22:36.406Z,56.80
2022-08-17T00:25:13.009Z,57.00
2022-08-17T00:27:40.121Z,57.40
2022-08-17T00:30:10.719Z,57.00
2022-08-17T00:33:13.839Z,56.80
2022-08-17T00:35:30.733Z,56.60
2022-08-17T00:37:57.698Z,56.60
2022-08-17T00:40:24.938Z,56.60
2022-08-17T00:42:53.365Z,56.60
2022-08-17T00:45:20.975Z,56.60
2022-08-17T00:47:48.476Z,56.60
2022-08-17T00:50:18.671Z,56.60
2022-08-17T00:52:54.757Z,56.70
2022-08-17T00:55:23.864Z,56.80
2022-08-17T00:57:55.497Z,56.70
2022-08-17T01:00:32.324Z,56.90
2022-08-17T01:03:10.128Z,57.20
2022-08-17T01:05:42.419Z,57.30
2022-08-17T01:08:11.975Z,57.10
2022-08-17T01:10:59.259Z,57.40
2022-08-17T01:13:40.681Z,57.70
2022-08-17T01:16:16.070Z,57.90
2022-08-17T01:18:45.841Z,58.10
2022-08-17T01:21:24.585Z,57.90
2022-08-17T01:23:51.861Z,58.30
2022-08-17T01:26:19.377Z,58.70
2022-08-17T01:28:55.030Z,59.40
2022-08-17T01:31:25.119Z,59.40
2022-08-17T01:33:52.154Z,59.40
2022-08-17T01:36:19.207Z,60.20
2022-08-17T01:38:46.210Z,60.30
2022-08-17T01:41:16.338Z,60.50
2022-08-17T01:44:00.993Z,60.90
2022-08-17T01:46:32.028Z,62.90
2022-08-17T01:48:59.422Z,63.10
2022-08-17T01:51:32.479Z,64.10
2022-08-17T01:54:05.240Z,63.60
2022-08-17T01:56:34.143Z,63.80
2022-08-17T01:59:01.427Z,63.70
2022-08-17T02:01:30.703Z,63.80
2022-08-17T02:04:01.102Z,63.80
2022-08-17T02:06:53.618Z,64.50
2022-08-17T02:09:25.520Z,64.00
2022-08-17T02:11:54.381Z,62.90
2022-08-17T02:14:22.686Z,63.80
2022-08-17T02:16:49.649Z,64.10
2022-08-17T02:19:17.500Z,64.70
2022-08-17T02:21:46.948Z,65.00
2022-08-17T02:24:59.869Z,64.80
2022-08-17T02:27:07.871Z,63.80
2022-08-17T02:29:34.909Z,63.70
2022-08-17T02:32:01.952Z,63.50
2022-08-17T02:34:30.021Z,63.10
2022-08-17T02:36:56.957Z,63.00
2022-08-17T02:39:24.048Z,63.10
2022-08-17T02:41:59.804Z,63.40
2022-08-17T02:44:39.280Z,63.80
2022-08-17T02:47:08.560Z,64.30
2022-08-17T02:49:35.700Z,64.80
2022-08-17T02:52:07.131Z,65.00
2022-08-17T02:54:41.206Z,65.10
2022-08-17T02:57:09.580Z,65.10
2022-08-17T02:59:36.686Z,65.30
2022-08-17T03:02:06.046Z,65.40
2022-08-17T03:04:35.267Z,65.70
2022-08-17T03:07:03.531Z,66.00
2022-08-17T03:09:30.759Z,65.80
2022-08-17T03:12:23.921Z,66.20
2022-08-17T03:14:50.790Z,66.20
2022-08-17T03:17:17.643Z,66.00
2022-08-17T03:19:44.941Z,65.70
2022-08-17T03:22:36.248Z,66.60
2022-08-17T03:24:58.907Z,65.40
2022-08-17T03:27:26.317Z,65.30
2022-08-17T03:29:53.677Z,65.40
2022-08-17T03:32:20.915Z,65.70
2022-08-17T03:34:47.984Z,65.60
2022-08-17T03:37:15.783Z,65.00
2022-08-17T03:39:43.053Z,64.90
2022-08-17T03:42:31.390Z,65.00
2022-08-17T03:45:00.415Z,65.10
2022-08-17T03:47:45.784Z,64.10
2022-08-17T03:50:32.517Z,64.70
2022-08-17T03:53:18.933Z,64.70
2022-08-17T03:56:04.724Z,64.70
2022-08-17T03:58:31.582Z,64.40
2022-08-17T04:00:58.599Z,65.10
2022-08-17T04:03:25.606Z,65.30
2022-08-17T04:05:52.475Z,65.30
2022-08-17T04:08:19.364Z,65.50
2022-08-17T04:10:46.521Z,65.40
2022-08-17T04:13:14.428Z,65.80
2022-08-17T04:15:41.426Z,65.60
2022-08-17T04:18:08.327Z,65.70
2022-08-17T04:20:38.027Z,65.80
2022-08-17T04:23:09.470Z,65.80
2022-08-17T04:25:41.821Z,65.50
2022-08-17T04:28:15.996Z,65.70
2022-08-17T04:30:45.196Z,65.30
2022-08-17T04:33:15.699Z,65.40
2022-08-17T04:35:51.008Z,65.90
2022-08-17T04:38:26.978Z,65.80
2022-08-17T04:41:13.307Z,65.80
2022-08-17T04:43:42.353Z,65.50
2022-08-17T04:46:15.868Z,66.10
2022-08-17T04:48:46.556Z,66.10
2022-08-17T04:51:23.742Z,65.90
2022-08-17T04:53:55.103Z,66.00
2022-08-17T04:56:23.976Z,66.10
2022-08-17T04:58:52.765Z,65.70
2022-08-17T05:01:23.824Z,66.10
2022-08-17T05:03:53.559Z,65.70
2022-08-17T05:06:21.111Z,65.70
2022-08-17T05:08:48.154Z,65.70
2022-08-17T05:11:15.828Z,65.70
2022-08-17T05:13:42.715Z,65.80
2022-08-17T05:16:09.731Z,65.80
2022-08-17T05:18:38.851Z,65.90
2022-08-17T05:21:06.963Z,65.50
2022-08-17T05:23:42.419Z,65.70
2022-08-17T05:26:26.350Z,65.30
2022-08-17T05:28:59.551Z,65.60
2022-08-17T05:31:28.806Z,65.40
2022-08-17T05:33:55.827Z,65.50
2022-08-17T05:36:43.149Z,65.60
2022-08-17T05:39:13.422Z,65.70
2022-08-17T05:41:44.360Z,65.90
2022-08-17T05:44:11.285Z,65.80
2022-08-17T05:46:41.627Z,66.00
2022-08-17T05:49:09.509Z,66.00
2022-08-17T05:52:03.746Z,66.40
2022-08-17T05:54:57.032Z,67.10
2022-08-17T05:58:00.123Z,66.80
2022-08-17T06:00:50.302Z,66.60
2022-08-17T06:03:45.086Z,66.30
2022-08-17T06:06:51.343Z,65.60
2022-08-17T06:09:33.869Z,65.10
2022-08-17T06:12:30.380Z,65.00
2022-08-17T06:15:19.513Z,65.40
2022-08-17T06:17:46.702Z,64.80
2022-08-17T06:20:16.055Z,63.80
2022-08-17T06:22:47.698Z,62.90
2022-08-17T06:25:39.009Z,62.30
2022-08-17T06:28:13.702Z,61.10
2022-08-17T06:30:59.560Z,60.50
2022-08-17T06:33:34.248Z,60.00
2022-08-17T06:36:10.140Z,59.10
2022-08-17T06:39:09.198Z,59.50
2022-08-17T06:42:07.189Z,60.00
2022-08-17T06:45:10.378Z,60.90
2022-08-17T06:47:59.291Z,59.90
2022-08-17T06:50:39.948Z,60.20
2022-08-17T06:53:29.340Z,58.50
2022-08-17T06:56:06.777Z,58.50
2022-08-17T06:58:35.783Z,60.00
2022-08-17T07:01:14.055Z,58.80
2022-08-17T07:03:56.560Z,59.20
2022-08-17T07:06:38.359Z,60.10
2022-08-17T07:09:28.170Z,59.40
2022-08-17T07:12:24.421Z,59.30
2022-08-17T07:15:05.494Z,60.10
2022-08-17T07:17:47.869Z,60.50
2022-08-17T07:20:20.485Z,60.80
2022-08-17T07:23:00.185Z,61.20
2022-08-17T07:25:28.591Z,61.40
2022-08-17T07:27:59.790Z,61.20
2022-08-17T07:30:47.058Z,61.80
2022-08-17T07:33:29.008Z,61.60
2022-08-17T07:35:58.087Z,62.90
2022-08-17T07:38:31.024Z,61.30
2022-08-17T07:40:58.218Z,62.00
2022-08-17T07:43:41.125Z,62.00
2022-08-17T07:46:37.677Z,61.40
2022-08-17T07:49:07.462Z,61.30
2022-08-17T07:51:43.941Z,61.60
2022-08-17T07:54:22.452Z,61.60
2022-08-17T07:56:54.935Z,61.50
2022-08-17T07:59:24.784Z,61.70
2022-08-17T08:01:58.121Z,61.70
2022-08-17T08:04:59.212Z,62.20
2022-08-17T08:07:26.745Z,61.90
2022-08-17T08:10:05.943Z,62.40
2022-08-17T08:12:37.716Z,62.30
2022-08-17T08:15:18.956Z,61.90
2022-08-17T08:17:57.600Z,62.10
2022-08-17T08:20:53.939Z,62.80
2022-08-17T08:23:41.150Z,62.70
2022-08-17T08:26:23.574Z,62.50
2022-08-17T08:29:01.344Z,62.30
2022-08-17T08:31:46.460Z,62.20
2022-08-17T08:34:53.164Z,62.70
2022-08-17T08:37:43.638Z,62.70
2022-08-17T08:40:18.669Z,62.40
2022-08-17T08:43:04.227Z,62.80
2022-08-17T08:45:59.799Z,62.90
2022-08-17T08:49:06.501Z,62.60
2022-08-17T08:51:46.518Z,62.30
2022-08-17T08:54:26.687Z,62.30
2022-08-17T08:57:34.019Z,62.20
2022-08-17T09:00:17.181Z,62.40
2022-08-17T09:03:06.193Z,62.50
2022-08-17T09:05:58.149Z,62.40
2022-08-17T09:08:37.146Z,62.30
2022-08-17T09:11:11.517Z,62.30
2022-08-17T09:13:54.682Z,62.60
2022-08-17T09:16:33.149Z,63.10
2022-08-17T09:19:18.835Z,60.70
2022-08-17T09:22:01.180Z,59.00
2022-08-17T09:24:49.221Z,58.30
2022-08-17T09:27:23.643Z,59.20
2022-08-17T09:30:08.480Z,60.80
2022-08-17T09:32:42.291Z,59.10
2022-08-17T09:35:20.503Z,59.50
2022-08-17T09:38:01.888Z,59.70
2022-08-17T09:40:44.646Z,58.80
2022-08-17T09:43:50.692Z,57.40
2022-08-17T09:46:22.521Z,56.70
2022-08-17T09:49:03.397Z,55.80
2022-08-17T09:51:30.407Z,54.60
2022-08-17T09:54:09.695Z,54.60
2022-08-17T09:57:05.902Z,55.10
2022-08-17T09:59:58.131Z,55.10
2022-08-17T10:02:34.223Z,53.90
2022-08-17T10:05:15.852Z,54.30
2022-08-17T10:07:52.358Z,53.50
2022-08-17T10:10:28.638Z,53.70
2022-08-17T10:13:10.879Z,53.70
2022-08-17T10:15:53.762Z,52.30
2022-08-17T10:18:31.926Z,52.50
2022-08-17T10:21:35.578Z,53.80
2022-08-17T10:25:21.761Z,53.30
2022-08-17T10:27:39.058Z,51.90
2022-08-17T10:30:08.184Z,51.50
2022-08-17T10:32:49.343Z,52.60
2022-08-17T10:35:34.666Z,53.00
2022-08-17T10:38:38.437Z,52.20
2022-08-17T10:41:27.354Z,50.70
2022-08-17T10:44:38.659Z,51.60
2022-08-17T10:47:07.062Z,51.20
2022-08-17T10:49:49.662Z,50.50
2022-08-17T10:52:42.642Z,50.40
2022-08-17T10:55:14.971Z,51.00
2022-08-17T10:57:50.244Z,51.30
2022-08-17T11:00:28.432Z,50.60
2022-08-17T11:02:57.522Z,50.50
2022-08-17T11:05:50.195Z,50.30
2022-08-17T11:08:41.473Z,50.40
2022-08-17T11:11:37.617Z,51.40
2022-08-17T11:14:29.392Z,51.90
2022-08-17T11:17:23.684Z,53.00
2022-08-17T11:20:09.389Z,51.50
2022-08-17T11:23:15.186Z,52.90
2022-08-17T11:26:08.581Z,53.00
2022-08-17T11:28:48.705Z,53.80
2022-08-17T11:31:38.403Z,54.90
2022-08-17T11:34:26.223Z,54.90
2022-08-17T11:37:30.899Z,55.80
2022-08-17T11:40:11.864Z,56.90
2022-08-17T11:42:50.168Z,58.20
2022-08-17T11:45:35.411Z,59.00
2022-08-17T11:48:45.680Z,58.90
2022-08-17T11:51:33.070Z,58.90
2022-08-17T11:56:59.802Z,58.90
2022-08-17T11:59:32.803Z,60.00
2022-08-17T12:02:02.320Z,59.50
2022-08-17T12:04:34.599Z,58.30
2022-08-17T12:07:16.843Z,58.50
2022-08-17T12:09:47.780Z,59.90
2022-08-17T12:12:19.363Z,60.70
2022-08-17T12:15:10.651Z,60.60
2022-08-17T12:17:40.355Z,60.50
2022-08-17T12:20:24.043Z,60.80
2022-08-17T12:23:16.991Z,61.00
2022-08-17T12:25:49.287Z,61.20
2022-08-17T12:28:27.161Z,61.30
2022-08-17T12:30:56.068Z,61.90
2022-08-17T12:33:27.943Z,61.20
2022-08-17T12:36:05.556Z,61.90
2022-08-17T12:38:37.966Z,62.10
2022-08-17T12:41:25.846Z,62.20
2022-08-17T12:44:20.871Z,62.00
2022-08-17T12:47:19.360Z,62.20
2022-08-17T12:49:51.545Z,62.00
2022-08-17T12:52:32.808Z,62.20
2022-08-17T12:55:13.007Z,61.70
2022-08-17T12:57:47.100Z,61.80
2022-08-17T13:00:33.129Z,62.40
2022-08-17T13:03:07.792Z,61.80
2022-08-17T13:05:37.423Z,63.60
2022-08-17T13:08:15.732Z,62.50
2022-08-17T13:10:42.805Z,62.00
2022-08-17T13:13:25.084Z,62.60
2022-08-17T13:16:05.631Z,62.70
2022-08-17T13:18:43.943Z,62.60
2022-08-17T13:21:20.011Z,62.90
2022-08-17T13:24:05.813Z,63.00
2022-08-17T13:26:42.119Z,63.10
2022-08-17T13:29:23.865Z,63.10
2022-08-17T13:32:13.754Z,62.80
2022-08-17T13:35:13.051Z,63.30
2022-08-17T13:37:34.745Z,63.70
2022-08-17T13:40:10.872Z,63.30
2022-08-17T13:42:51.843Z,63.50
2022-08-17T13:45:36.341Z,63.10
2022-08-17T13:48:13.626Z,63.30
2022-08-17T13:50:59.585Z,63.20
2022-08-17T13:53:36.876Z,63.30
2022-08-17T13:56:37.437Z,63.90
2022-08-17T13:59:13.879Z,63.80
2022-08-17T14:01:48.509Z,64.50
2022-08-17T14:04:27.981Z,64.40
2022-08-17T14:06:57.041Z,64.90
2022-08-17T14:09:36.832Z,65.20
2022-08-17T14:12:08.899Z,65.00
2022-08-17T14:14:36.387Z,65.00
2022-08-17T14:17:04.338Z,65.20
2022-08-17T14:19:31.380Z,65.70
2022-08-17T14:22:00.451Z,66.20
2022-08-17T14:24:33.707Z,65.90
2022-08-17T14:27:03.409Z,66.50
2022-08-17T14:29:33.270Z,66.50
2022-08-17T14:32:06.582Z,66.10
2022-08-17T14:34:33.591Z,65.70
2022-08-17T14:37:00.448Z,65.70
2022-08-17T14:39:28.759Z,65.40
2022-08-17T14:41:57.865Z,65.90
2022-08-17T14:44:24.949Z,65.90
2022-08-17T14:46:51.871Z,66.60
2022-08-17T14:49:20.652Z,66.60
2022-08-17T14:51:47.927Z,65.70
2022-08-17T14:54:29.433Z,65.40
2022-08-17T14:57:22.486Z,65.20
2022-08-17T14:59:54.245Z,65.40
2022-08-17T15:02:29.450Z,65.70
2022-08-17T15:05:03.957Z,65.50
2022-08-17T15:07:31.675Z,65.20
2022-08-17T15:10:02.454Z,65.60
2022-08-17T15:12:34.559Z,65.90
2022-08-17T15:15:06.223Z,65.40
2022-08-17T15:17:43.799Z,65.00
2022-08-17T15:20:28.472Z,64.80
2022-08-17T15:22:57.155Z,64.20
2022-08-17T15:25:26.239Z,63.90
2022-08-17T15:27:54.865Z,64.20
2022-08-17T15:30:22.537Z,63.70
2022-08-17T15:32:54.484Z,63.90
2022-08-17T15:35:27.416Z,63.80
2022-08-17T15:38:11.297Z,64.10
2022-08-17T15:40:42.765Z,64.40
2022-08-17T15:43:23.323Z,63.90
2022-08-17T15:46:12.270Z,63.90
2022-08-17T15:48:44.692Z,63.50
2022-08-17T15:51:15.057Z,63.50
2022-08-17T15:53:44.801Z,63.80
2022-08-17T15:56:13.647Z,63.40
2022-08-17T15:58:43.673Z,63.60
2022-08-17T16:01:16.764Z,63.80
2022-08-17T16:04:03.930Z,64.00
2022-08-17T16:06:32.432Z,63.90
2022-08-17T16:09:00.410Z,63.60
2022-08-17T16:11:27.304Z,63.70
2022-08-17T16:13:54.864Z,63.50
2022-08-17T16:16:23.625Z,63.70
2022-08-17T16:18:53.543Z,63.80
2022-08-17T16:21:25.760Z,64.00
2022-08-17T16:24:02.985Z,63.50
2022-08-17T16:26:31.827Z,63.50
2022-08-17T16:29:01.023Z,63.20
2022-08-17T16:31:28.101Z,63.10
2022-08-17T16:34:15.488Z,63.70
2022-08-17T16:36:55.795Z,63.50
2022-08-17T16:39:28.118Z,63.70
2022-08-17T16:41:56.302Z,63.80
2022-08-17T16:44:23.902Z,63.40
2022-08-17T16:46:51.108Z,64.40
2022-08-17T16:49:35.706Z,63.80
2022-08-17T16:52:05.312Z,63.40
2022-08-17T16:54:32.640Z,63.50
2022-08-17T16:56:59.528Z,63.40
2022-08-17T16:59:31.146Z,63.60
2022-08-17T17:02:15.701Z,63.60
2022-08-17T17:05:03.183Z,63.90
2022-08-17T17:07:37.733Z,63.80
2022-08-17T17:10:15.841Z,64.30
2022-08-17T17:13:03.756Z,64.60
2022-08-17T17:15:45.687Z,64.60
2022-08-17T17:18:15.281Z,64.70
2022-08-17T17:20:54.750Z,64.70
2022-08-17T17:23:34.950Z,64.60
2022-08-17T17:26:19.860Z,64.70
2022-08-17T17:28:56.240Z,64.80
2022-08-17T17:31:29.366Z,64.60
2022-08-17T17:34:00.531Z,64.70
2022-08-17T17:36:42.703Z,64.70
2022-08-17T17:39:43.757Z,64.80
2022-08-17T17:42:14.491Z,64.90
2022-08-17T17:45:09.620Z,64.60
2022-08-17T17:47:37.187Z,64.50
2022-08-17T17:50:07.573Z,64.10
2022-08-17T17:52:47.448Z,64.20
2022-08-17T17:55:37.393Z,63.90
2022-08-17T17:58:22.475Z,63.90
2022-08-17T18:01:01.091Z,63.50
2022-08-17T18:03:58.870Z,63.80
2022-08-17T18:07:12.337Z,63.50
2022-08-17T18:10:19.643Z,63.20
2022-08-17T18:13:35.438Z,63.10
2022-08-17T18:16:06.244Z,63.20
2022-08-17T18:18:39.035Z,63.10
2022-08-17T18:21:16.338Z,63.30
2022-08-17T18:23:59.778Z,62.90
2022-08-17T18:26:47.517Z,63.20
2022-08-17T18:29:32.203Z,63.00
2022-08-17T18:32:25.553Z,62.70
2022-08-17T18:35:18.010Z,63.20
2022-08-17T18:37:46.542Z,62.90
2022-08-17T18:40:19.693Z,63.10
2022-08-17T18:43:13.358Z,63.30
2022-08-17T18:45:45.957Z,62.70
2022-08-17T18:48:30.306Z,62.90
2022-08-17T18:51:40.770Z,62.70
2022-08-17T18:54:24.926Z,62.40
2022-08-17T18:57:02.032Z,62.70
2022-08-17T18:59:28.951Z,62.90
2022-08-17T19:02:27.241Z,63.40
2022-08-17T19:05:27.290Z,62.90
2022-08-17T19:07:54.818Z,63.30
2022-08-17T19:10:30.574Z,63.70
2022-08-17T19:13:31.239Z,63.70
2022-08-17T19:16:15.684Z,64.00
2022-08-17T19:18:56.052Z,63.90
2022-08-17T19:21:34.765Z,63.40
2022-08-17T19:24:29.972Z,63.50
2022-08-17T19:27:01.531Z,63.90
2022-08-17T19:29:38.830Z,63.30
2022-08-17T19:32:08.843Z,63.00
2022-08-17T19:34:37.615Z,63.30
2022-08-17T19:37:29.789Z,63.20
2022-08-17T19:40:41.884Z,63.90
2022-08-17T19:43:20.657Z,63.90
2022-08-17T19:46:07.728Z,64.10
2022-08-17T19:49:03.289Z,64.50
2022-08-17T19:52:06.573Z,64.40
2022-08-17T19:54:59.514Z,63.80
2022-08-17T19:57:50.613Z,63.00
2022-08-17T20:00:19.085Z,63.00
2022-08-17T20:03:06.179Z,63.50
2022-08-17T20:06:09.221Z,63.70
2022-08-17T20:08:40.054Z,64.00
2022-08-17T20:11:14.573Z,64.60
2022-08-17T20:13:49.011Z,64.60
2022-08-17T20:16:18.420Z,64.30
2022-08-17T20:19:02.796Z,65.10
2022-08-17T20:21:39.688Z,65.60
2022-08-17T20:24:20.159Z,65.80
2022-08-17T20:26:58.053Z,65.80
2022-08-17T20:29:39.971Z,65.90
2022-08-17T20:32:23.358Z,65.40
2022-08-17T20:35:19.366Z,65.90
2022-08-17T20:38:03.208Z,66.20
2022-08-17T20:40:35.232Z,66.00
2022-08-17T20:43:33.480Z,66.00
2022-08-17T20:46:03.505Z,65.80
2022-08-17T20:48:41.194Z,65.70
2022-08-17T20:52:01.475Z,65.70
2022-08-17T20:54:44.327Z,65.70
2022-08-17T20:57:33.299Z,65.80
2022-08-17T21:00:16.436Z,66.00
2022-08-17T21:03:12.145Z,65.50
2022-08-17T21:06:00.268Z,65.60
2022-08-17T21:08:34.303Z,65.20
2022-08-17T21:11:58.194Z,65.20
2022-08-17T21:14:31.621Z,65.20
2022-08-17T21:16:58.674Z,65.10
2022-08-17T21:20:09.815Z,65.40
2022-08-17T21:23:03.377Z,65.50
2022-08-17T21:25:57.687Z,65.30
2022-08-17T21:28:33.895Z,65.20
2022-08-17T21:31:09.078Z,65.30
2022-08-17T21:33:39.601Z,65.00
2022-08-17T21:36:12.325Z,65.30
2022-08-17T21:38:57.029Z,65.70
2022-08-17T21:41:45.539Z,65.20
2022-08-17T21:44:35.370Z,65.40
2022-08-17T21:47:20.417Z,65.60
2022-08-17T21:49:47.346Z,64.70
2022-08-17T21:52:17.784Z,64.40
2022-08-17T21:54:55.478Z,65.10
2022-08-17T21:57:27.539Z,65.30
2022-08-17T21:59:57.691Z,64.90
2022-08-17T22:02:29.549Z,64.70
2022-08-17T22:05:07.436Z,64.60
2022-08-17T22:07:36.580Z,65.00
2022-08-17T22:10:05.867Z,64.20
2022-08-17T22:12:32.779Z,64.90
2022-08-17T22:15:07.408Z,64.60
2022-08-17T22:17:37.880Z,64.80
2022-08-17T22:20:10.534Z,64.90
2022-08-17T22:23:18.134Z,64.90
2022-08-17T22:26:05.940Z,65.10
2022-08-17T22:28:42.322Z,64.70
2022-08-17T22:31:14.531Z,64.70
2022-08-17T22:33:41.578Z,64.70
2022-08-17T22:36:19.456Z,64.70
2022-08-17T22:38:49.977Z,64.70
2022-08-17T22:41:37.639Z,64.60
2022-08-17T22:44:24.176Z,64.80
2022-08-17T22:47:22.998Z,64.60
2022-08-17T22:49:57.853Z,65.70
2022-08-17T22:52:56.768Z,64.70
2022-08-17T22:55:43.219Z,64.80
2022-08-17T22:58:31.527Z,64.40
2022-08-17T23:01:32.625Z,64.40
2022-08-17T23:04:03.079Z,64.30
2022-08-17T23:06:33.850Z,64.60
2022-08-17T23:09:03.962Z,64.80
2022-08-17T23:11:49.547Z,64.70
2022-08-17T23:14:21.507Z,64.90
2022-08-17T23:16:53.084Z,64.80
2022-08-17T23:19:21.888Z,65.00
2022-08-17T23:21:51.006Z,64.60
2022-08-17T23:24:23.219Z,64.80
2022-08-17T23:26:50.305Z,64.90
2022-08-17T23:29:17.201Z,64.70
2022-08-17T23:31:44.118Z,64.90
2022-08-17T23:34:13.970Z,64.80
2022-08-17T23:36:42.059Z,64.70
2022-08-17T23:39:08.980Z,64.90
2022-08-17T23:41:39.971Z,64.80
2022-08-17T23:44:07.399Z,64.70
2022-08-17T23:46:34.821Z,65.80
2022-08-17T23:49:01.788Z,65.10
2022-08-17T23:51:38.198Z,65.10
2022-08-17T23:54:26.633Z,65.00
2022-08-17T23:56:53.688Z,65.00
2022-08-17T23:59:22.690Z,64.80
